createdAt,value
2019-03-21T00:00:49.772Z,19.50
2019-03-21T00:01:49.702Z,18.20
2019-03-21T00:02:49.583Z,20.30
2019-03-21T00:03:49.582Z,20.00
2019-03-21T00:04:49.461Z,20.80
2019-03-21T00:05:49.461Z,21.30
2019-03-21T00:06:49.460Z,20.00
2019-03-21T00:07:49.348Z,20.90
2019-03-21T00:08:49.485Z,19.90
2019-03-21T00:09:49.226Z,20.20
2019-03-21T00:10:49.221Z,19.70
2019-03-21T00:11:49.220Z,19.00
2019-03-21T00:12:49.100Z,18.50
2019-03-21T00:13:49.101Z,18.50
2019-03-21T00:14:48.981Z,18.60
2019-03-21T00:15:48.978Z,18.30
2019-03-21T00:16:48.982Z,18.90
2019-03-21T00:17:48.866Z,19.10
2019-03-21T00:18:48.863Z,18.70
2019-03-21T00:19:48.743Z,19.10
2019-03-21T00:20:48.741Z,19.30
2019-03-21T00:21:48.740Z,19.00
2019-03-21T00:22:48.620Z,18.70
2019-03-21T00:23:48.618Z,18.50
2019-03-21T00:24:48.503Z,17.70
2019-03-21T00:25:48.501Z,18.90
2019-03-21T00:26:48.498Z,19.30
2019-03-21T00:27:48.379Z,18.90
2019-03-21T00:28:48.379Z,19.00
2019-03-21T00:29:48.258Z,18.30
2019-03-21T00:30:48.259Z,18.60
2019-03-21T00:31:48.224Z,18.80
2019-03-21T00:32:48.135Z,17.50
2019-03-21T00:33:48.138Z,17.40
2019-03-21T00:34:48.018Z,16.70
2019-03-21T00:35:48.033Z,17.30
2019-03-21T00:36:47.913Z,17.10
2019-03-21T00:37:47.899Z,17.00
2019-03-21T00:38:47.900Z,18.20
2019-03-21T00:39:47.775Z,17.80
2019-03-21T00:40:47.776Z,17.70
2019-03-21T00:41:47.656Z,17.80
2019-03-21T00:42:47.656Z,18.40
2019-03-21T00:43:47.662Z,18.20
2019-03-21T00:44:47.540Z,18.10
2019-03-21T00:45:47.533Z,19.00
2019-03-21T00:46:47.417Z,18.20
2019-03-21T00:47:47.420Z,17.80
2019-03-21T00:48:47.416Z,18.50
2019-03-21T00:49:47.309Z,19.30
2019-03-21T00:50:47.299Z,18.50
2019-03-21T00:51:47.173Z,18.50
2019-03-21T00:52:47.171Z,18.00
2019-03-21T00:53:47.170Z,18.30
2019-03-21T00:54:47.053Z,19.50
2019-03-21T00:55:47.055Z,18.30
2019-03-21T00:56:46.930Z,18.00
2019-03-21T00:57:46.933Z,17.80
2019-03-21T00:58:46.934Z,18.80
2019-03-21T00:59:46.811Z,19.00
2019-03-21T01:00:46.814Z,19.00
2019-03-21T01:01:46.690Z,17.90
2019-03-21T01:02:46.691Z,19.70
2019-03-21T01:03:46.692Z,18.90
2019-03-21T01:04:46.572Z,19.20
2019-03-21T01:05:46.570Z,19.30
2019-03-21T01:06:46.449Z,19.90
2019-03-21T01:07:46.449Z,20.20
2019-03-21T01:08:46.449Z,22.70
2019-03-21T01:09:46.331Z,23.10
2019-03-21T01:10:46.329Z,22.30
2019-03-21T01:11:46.210Z,21.60
2019-03-21T01:12:46.209Z,20.00
2019-03-21T01:13:46.174Z,19.90
2019-03-21T01:14:46.089Z,19.20
2019-03-21T01:15:46.093Z,19.00
2019-03-21T01:16:45.970Z,20.20
2019-03-21T01:17:45.967Z,18.20
2019-03-21T01:18:45.849Z,19.40
2019-03-21T01:19:45.855Z,18.50
2019-03-21T01:20:45.852Z,18.30
2019-03-21T01:21:45.725Z,18.10
2019-03-21T01:22:45.729Z,18.40
2019-03-21T01:23:45.608Z,18.90
2019-03-21T01:24:45.614Z,19.40
2019-03-21T01:25:45.610Z,19.60
2019-03-21T01:26:45.494Z,20.10
2019-03-21T01:27:45.487Z,19.20
2019-03-21T01:28:45.374Z,19.40
2019-03-21T01:29:45.371Z,19.00
2019-03-21T01:30:45.369Z,20.30
2019-03-21T01:31:45.246Z,19.50
2019-03-21T01:32:45.249Z,19.40
2019-03-21T01:33:45.123Z,19.40
2019-03-21T01:34:45.131Z,19.30
2019-03-21T01:35:45.124Z,18.80
2019-03-21T01:36:45.004Z,19.30
2019-03-21T01:37:45.004Z,19.40
2019-03-21T01:38:44.886Z,18.30
2019-03-21T01:39:44.883Z,20.30
2019-03-21T01:40:44.886Z,19.70
2019-03-21T01:41:44.766Z,20.00
2019-03-21T01:42:44.764Z,20.30
2019-03-21T01:43:44.640Z,19.20
2019-03-21T01:44:44.640Z,19.30
2019-03-21T01:45:44.645Z,19.80
2019-03-21T01:46:44.530Z,19.20
2019-03-21T01:47:44.520Z,19.10
2019-03-21T01:48:44.404Z,18.10
2019-03-21T01:49:44.401Z,19.00
2019-03-21T01:50:44.363Z,19.90
2019-03-21T01:51:44.284Z,19.90
2019-03-21T01:52:44.287Z,19.10
2019-03-21T01:53:44.160Z,19.40
2019-03-21T01:54:44.158Z,19.30
2019-03-21T01:55:44.038Z,20.40
2019-03-21T01:56:44.045Z,21.00
2019-03-21T01:57:44.041Z,19.30
2019-03-21T01:58:43.924Z,19.80
2019-03-21T01:59:43.925Z,20.50
2019-03-21T02:00:43.802Z,19.80
2019-03-21T02:01:43.800Z,19.80
2019-03-21T02:02:43.799Z,20.00
2019-03-21T02:03:43.679Z,19.10
2019-03-21T02:04:43.679Z,19.60
2019-03-21T02:05:43.556Z,20.60
2019-03-21T02:06:43.559Z,20.50
2019-03-21T02:07:43.558Z,20.50
2019-03-21T02:08:43.444Z,20.50
2019-03-21T02:09:43.443Z,20.40
2019-03-21T02:10:43.319Z,21.00
2019-03-21T02:11:43.314Z,19.80
2019-03-21T02:12:43.316Z,19.40
2019-03-21T02:13:43.198Z,19.60
2019-03-21T02:14:51.834Z,19.20
2019-03-21T02:15:43.074Z,19.40
2019-03-21T02:16:43.076Z,18.90
2019-03-21T02:17:43.079Z,18.80
2019-03-21T02:18:42.956Z,19.60
2019-03-21T02:19:42.956Z,19.80
2019-03-21T02:20:42.832Z,19.00
2019-03-21T02:21:42.832Z,20.10
2019-03-21T02:22:42.797Z,19.40
2019-03-21T02:23:42.714Z,20.00
2019-03-21T02:24:42.712Z,20.40
2019-03-21T02:25:42.595Z,20.20
2019-03-21T02:26:42.591Z,19.80
2019-03-21T02:27:42.472Z,19.00
2019-03-21T02:28:42.476Z,19.40
2019-03-21T02:29:42.474Z,20.20
2019-03-21T02:30:42.354Z,20.20
2019-03-21T02:31:42.358Z,21.50
2019-03-21T02:32:42.235Z,23.80
2019-03-21T02:33:42.235Z,23.60
2019-03-21T02:34:42.232Z,26.80
2019-03-21T02:35:42.112Z,25.80
2019-03-21T02:36:42.123Z,25.20
2019-03-21T02:37:41.996Z,27.30
2019-03-21T02:38:41.991Z,26.90
2019-03-21T02:39:41.998Z,25.50
2019-03-21T02:40:41.872Z,24.30
2019-03-21T02:41:41.885Z,24.60
2019-03-21T02:42:41.761Z,25.10
2019-03-21T02:43:41.751Z,26.00
2019-03-21T02:44:41.776Z,26.20
2019-03-21T02:45:41.628Z,24.80
2019-03-21T02:46:41.629Z,24.30
2019-03-21T02:47:41.511Z,22.50
2019-03-21T02:48:41.513Z,22.30
2019-03-21T02:49:41.515Z,23.40
2019-03-21T02:50:41.396Z,22.90
2019-03-21T02:51:41.388Z,22.60
2019-03-21T02:52:41.271Z,21.90
2019-03-21T02:53:41.288Z,21.20
2019-03-21T02:54:41.232Z,21.10
2019-03-21T02:55:41.152Z,20.70
2019-03-21T02:56:41.145Z,20.20
2019-03-21T02:57:41.029Z,21.50
2019-03-21T02:58:41.038Z,19.90
2019-03-21T02:59:40.913Z,21.80
2019-03-21T03:00:40.914Z,22.30
2019-03-21T03:01:40.910Z,22.80
2019-03-21T03:02:40.791Z,22.00
2019-03-21T03:03:40.797Z,21.30
2019-03-21T03:04:40.674Z,20.80
2019-03-21T03:05:40.670Z,21.50
2019-03-21T03:06:40.673Z,21.80
2019-03-21T03:07:40.545Z,21.50
2019-03-21T03:08:40.545Z,21.20
2019-03-21T03:09:40.447Z,20.70
2019-03-21T03:10:40.429Z,21.20
2019-03-21T03:11:40.430Z,21.20
2019-03-21T03:12:40.301Z,21.00
2019-03-21T03:13:40.302Z,20.10
2019-03-21T03:14:40.189Z,20.60
2019-03-21T03:15:40.185Z,20.70
2019-03-21T03:16:40.146Z,19.90
2019-03-21T03:17:40.077Z,20.20
2019-03-21T03:18:40.066Z,21.10
2019-03-21T03:19:39.941Z,20.80
2019-03-21T03:20:39.945Z,20.90
2019-03-21T03:21:39.822Z,21.20
2019-03-21T03:22:39.820Z,21.90
2019-03-21T03:23:39.826Z,21.30
2019-03-21T03:24:39.699Z,21.90
2019-03-21T03:25:39.701Z,20.80
2019-03-21T03:26:39.581Z,21.00
2019-03-21T03:27:39.585Z,21.10
2019-03-21T03:28:39.581Z,20.70
2019-03-21T03:29:39.457Z,20.60
2019-03-21T03:30:39.468Z,20.10
2019-03-21T03:31:39.353Z,20.10
2019-03-21T03:32:39.372Z,21.00
2019-03-21T03:33:39.346Z,20.00
2019-03-21T03:34:39.235Z,20.20
2019-03-21T03:35:39.219Z,20.60
2019-03-21T03:36:39.105Z,20.20
2019-03-21T03:37:39.098Z,21.00
2019-03-21T03:38:39.102Z,21.40
2019-03-21T03:39:38.981Z,19.20
2019-03-21T03:40:38.980Z,20.90
2019-03-21T03:41:38.856Z,20.10
2019-03-21T03:42:38.856Z,19.80
2019-03-21T03:43:38.736Z,20.10
2019-03-21T03:44:38.743Z,21.00
2019-03-21T03:45:38.942Z,20.60
2019-03-21T03:46:38.619Z,20.10
2019-03-21T03:47:38.623Z,20.70
2019-03-21T03:48:38.502Z,20.10
2019-03-21T03:49:38.510Z,20.70
2019-03-21T03:50:38.498Z,20.50
2019-03-21T03:51:38.376Z,21.10
2019-03-21T03:52:38.374Z,20.00
2019-03-21T03:53:38.258Z,20.70
2019-03-21T03:54:38.254Z,20.10
2019-03-21T03:55:38.261Z,20.70
2019-03-21T03:56:38.136Z,20.20
2019-03-21T03:57:38.133Z,20.10
2019-03-21T03:58:38.019Z,20.80
2019-03-21T03:59:38.020Z,20.40
2019-03-21T04:00:38.017Z,20.20
2019-03-21T04:01:37.896Z,20.70
2019-03-21T04:02:37.891Z,20.90
2019-03-21T04:03:37.773Z,21.10
2019-03-21T04:04:37.771Z,21.20
2019-03-21T04:05:37.734Z,20.90
2019-03-21T04:06:37.651Z,19.90
2019-03-21T04:07:37.649Z,22.00
2019-03-21T04:08:37.534Z,21.30
2019-03-21T04:09:37.533Z,21.30
2019-03-21T04:10:37.413Z,20.60
2019-03-21T04:11:37.415Z,21.60
2019-03-21T04:12:37.414Z,21.90
2019-03-21T04:13:37.291Z,23.00
2019-03-21T04:14:37.295Z,24.80
2019-03-21T04:15:51.274Z,24.30
2019-03-21T04:16:37.175Z,23.90
2019-03-21T04:17:37.171Z,23.00
2019-03-21T04:18:37.052Z,23.60
2019-03-21T04:19:37.053Z,23.20
2019-03-21T04:20:36.934Z,23.60
2019-03-21T04:21:36.930Z,23.50
2019-03-21T04:22:37.394Z,23.20
2019-03-21T04:23:37.409Z,22.10
2019-03-21T04:24:37.147Z,21.90
2019-03-21T04:25:38.027Z,22.50
2019-03-21T04:26:38.019Z,22.10
2019-03-21T04:27:37.293Z,22.20
2019-03-21T04:28:36.571Z,22.70
2019-03-21T04:29:36.571Z,23.60
2019-03-21T04:30:36.447Z,24.50
2019-03-21T04:31:36.443Z,24.20
2019-03-21T04:32:36.325Z,24.40
2019-03-21T04:33:36.332Z,25.40
2019-03-21T04:34:36.324Z,25.70
2019-03-21T04:35:36.205Z,25.90
2019-03-21T04:36:36.207Z,25.30
2019-03-21T04:37:36.099Z,26.00
2019-03-21T04:38:36.087Z,26.20
2019-03-21T04:39:36.085Z,26.30
2019-03-21T04:40:35.966Z,24.70
2019-03-21T04:41:35.967Z,24.70
2019-03-21T04:42:35.847Z,25.10
2019-03-21T04:43:35.844Z,25.20
2019-03-21T04:44:35.807Z,25.60
2019-03-21T04:45:35.725Z,28.20
2019-03-21T04:46:35.725Z,27.70
2019-03-21T04:47:35.605Z,28.70
2019-03-21T04:48:35.605Z,30.30
2019-03-21T04:49:35.488Z,27.00
2019-03-21T04:50:35.604Z,27.00
2019-03-21T04:51:35.609Z,26.20
2019-03-21T04:52:35.360Z,25.20
2019-03-21T04:53:35.367Z,25.60
2019-03-21T04:54:35.251Z,26.50
2019-03-21T04:55:35.242Z,27.70
2019-03-21T04:56:35.256Z,26.70
2019-03-21T04:57:35.123Z,26.00
2019-03-21T04:58:35.121Z,26.70
2019-03-21T04:59:35.001Z,25.60
2019-03-21T05:00:35.001Z,26.70
2019-03-21T05:01:35.000Z,26.40
2019-03-21T05:02:34.881Z,25.70
2019-03-21T05:03:34.881Z,25.00
2019-03-21T05:04:34.763Z,24.30
2019-03-21T05:05:34.761Z,25.30
2019-03-21T05:06:34.732Z,23.70
2019-03-21T05:07:34.648Z,25.30
2019-03-21T05:08:34.642Z,24.80
2019-03-21T05:09:34.524Z,24.20
2019-03-21T05:10:34.518Z,23.80
2019-03-21T05:11:34.400Z,24.00
2019-03-21T05:12:34.403Z,24.80
2019-03-21T05:13:34.398Z,24.60
2019-03-21T05:14:34.275Z,25.00
2019-03-21T05:15:34.279Z,24.40
2019-03-21T05:16:34.164Z,25.70
2019-03-21T05:17:34.156Z,26.00
2019-03-21T05:18:34.157Z,24.20
2019-03-21T05:19:34.037Z,24.70
2019-03-21T05:20:34.039Z,24.50
2019-03-21T05:21:33.916Z,25.30
2019-03-21T05:22:33.915Z,23.40
2019-03-21T05:23:33.877Z,24.30
2019-03-21T05:24:33.795Z,24.40
2019-03-21T05:25:33.794Z,25.30
2019-03-21T05:26:33.682Z,25.70
2019-03-21T05:27:33.693Z,25.60
2019-03-21T05:28:33.555Z,26.90
2019-03-21T05:29:33.559Z,27.00
2019-03-21T05:30:33.559Z,28.00
2019-03-21T05:31:33.437Z,30.20
2019-03-21T05:32:33.442Z,30.30
2019-03-21T05:33:33.315Z,30.00
2019-03-21T05:34:33.318Z,28.10
2019-03-21T05:35:33.313Z,28.00
2019-03-21T05:36:33.191Z,29.40
2019-03-21T05:37:33.194Z,29.20
2019-03-21T05:38:33.074Z,30.20
2019-03-21T05:39:33.071Z,30.10
2019-03-21T05:40:33.034Z,31.50
2019-03-21T05:41:32.951Z,31.00
2019-03-21T05:42:32.954Z,30.80
2019-03-21T05:43:32.835Z,30.50
2019-03-21T05:44:32.830Z,31.50
2019-03-21T05:45:32.714Z,31.40
2019-03-21T05:46:32.712Z,31.80
2019-03-21T05:47:32.710Z,29.90
2019-03-21T05:48:32.594Z,29.60
2019-03-21T05:49:32.600Z,29.60
2019-03-21T05:50:32.472Z,28.50
2019-03-21T05:51:32.492Z,28.00
2019-03-21T05:52:32.469Z,29.60
2019-03-21T05:53:32.353Z,29.50
2019-03-21T05:54:32.348Z,29.50
2019-03-21T05:55:32.232Z,30.00
2019-03-21T05:56:32.232Z,30.00
2019-03-21T05:57:32.193Z,30.80
2019-03-21T05:58:32.109Z,31.20
2019-03-21T05:59:32.112Z,33.30
2019-03-21T06:00:31.991Z,33.40
2019-03-21T06:01:32.000Z,33.80
2019-03-21T06:02:31.874Z,33.90
2019-03-21T06:03:31.866Z,35.20
2019-03-21T06:04:31.868Z,36.60
2019-03-21T06:05:31.749Z,38.70
2019-03-21T06:06:31.745Z,38.50
2019-03-21T06:07:31.629Z,39.00
2019-03-21T06:08:31.627Z,38.40
2019-03-21T06:09:31.628Z,38.10
2019-03-21T06:10:31.510Z,38.80
2019-03-21T06:11:31.520Z,38.90
2019-03-21T06:12:31.391Z,36.20
2019-03-21T06:13:31.386Z,36.20
2019-03-21T06:14:31.394Z,37.40
2019-03-21T06:15:31.265Z,35.50
2019-03-21T06:16:37.651Z,35.70
2019-03-21T06:17:31.147Z,35.00
2019-03-21T06:18:31.146Z,34.90
2019-03-21T06:19:31.141Z,33.60
2019-03-21T06:20:31.029Z,32.50
2019-03-21T06:21:31.107Z,33.80
2019-03-21T06:22:31.111Z,31.10
2019-03-21T06:23:30.905Z,33.10
2019-03-21T06:24:30.989Z,32.30
2019-03-21T06:25:30.788Z,30.80
2019-03-21T06:26:30.783Z,30.80
2019-03-21T06:27:31.363Z,30.20
2019-03-21T06:28:30.666Z,29.70
2019-03-21T06:29:30.539Z,29.30
2019-03-21T06:30:30.542Z,29.00
2019-03-21T06:31:30.541Z,28.10
2019-03-21T06:32:30.423Z,27.50
2019-03-21T06:33:30.422Z,27.60
2019-03-21T06:34:30.302Z,27.70
2019-03-21T06:35:30.302Z,27.30
2019-03-21T06:36:30.262Z,28.50
2019-03-21T06:37:30.179Z,27.40
2019-03-21T06:38:30.179Z,27.80
2019-03-21T06:39:30.060Z,27.30
2019-03-21T06:40:30.059Z,27.60
2019-03-21T06:41:29.936Z,27.30
2019-03-21T06:42:29.938Z,28.20
2019-03-21T06:43:29.943Z,27.60
2019-03-21T06:44:29.821Z,27.50
2019-03-21T06:45:29.817Z,27.00
2019-03-21T06:46:29.702Z,26.30
2019-03-21T06:47:29.703Z,27.20
2019-03-21T06:48:29.697Z,27.90
2019-03-21T06:49:29.578Z,27.60
2019-03-21T06:50:29.578Z,28.90
2019-03-21T06:51:29.457Z,27.80
2019-03-21T06:52:29.461Z,27.60
2019-03-21T06:53:29.458Z,28.30
2019-03-21T06:54:29.335Z,27.70
2019-03-21T06:55:29.358Z,28.90
2019-03-21T06:56:29.214Z,29.30
2019-03-21T06:57:29.214Z,28.20
2019-03-21T06:58:29.179Z,28.90
2019-03-21T06:59:29.095Z,29.50
2019-03-21T07:00:29.096Z,29.50
2019-03-21T07:01:28.972Z,30.40
2019-03-21T07:02:28.976Z,30.60
2019-03-21T07:03:28.855Z,28.60
2019-03-21T07:04:28.857Z,27.40
2019-03-21T07:05:28.863Z,29.80
2019-03-21T07:06:28.732Z,30.20
2019-03-21T07:07:28.733Z,28.50
2019-03-21T07:08:28.614Z,26.90
2019-03-21T07:09:29.307Z,27.20
2019-03-21T07:10:28.612Z,27.20
2019-03-21T07:11:28.491Z,26.00
2019-03-21T07:12:28.491Z,26.30
2019-03-21T07:13:28.376Z,25.50
2019-03-21T07:14:28.370Z,25.90
2019-03-21T07:15:28.374Z,26.10
2019-03-21T07:16:28.252Z,25.50
2019-03-21T07:17:28.253Z,25.90
2019-03-21T07:18:28.130Z,24.70
2019-03-21T07:19:28.131Z,23.40
2019-03-21T07:20:28.132Z,22.60
2019-03-21T07:21:28.010Z,23.70
2019-03-21T07:22:28.015Z,22.80
2019-03-21T07:23:27.892Z,22.10
2019-03-21T07:24:27.893Z,22.80
2019-03-21T07:25:27.892Z,22.00
2019-03-21T07:26:27.773Z,21.20
2019-03-21T07:27:27.767Z,20.60
2019-03-21T07:28:27.650Z,21.80
2019-03-21T07:29:27.648Z,21.10
2019-03-21T07:30:27.651Z,20.10
2019-03-21T07:31:27.527Z,21.20
2019-03-21T07:32:33.372Z,21.40
2019-03-21T07:33:27.407Z,21.00
2019-03-21T07:34:27.419Z,20.30
2019-03-21T07:35:27.407Z,19.30
2019-03-21T07:36:27.287Z,19.60
2019-03-21T07:37:27.290Z,19.90
2019-03-21T07:38:27.165Z,18.70
2019-03-21T07:39:28.728Z,19.20
2019-03-21T07:40:27.169Z,18.20
2019-03-21T07:41:27.047Z,17.80
2019-03-21T07:42:27.045Z,17.90
2019-03-21T07:43:26.928Z,17.80
2019-03-21T07:44:26.923Z,16.60
2019-03-21T07:45:26.930Z,16.60
2019-03-21T07:46:26.808Z,16.90
2019-03-21T07:47:26.806Z,15.90
2019-03-21T07:48:26.687Z,15.30
2019-03-21T07:49:26.697Z,16.70
2019-03-21T07:50:26.684Z,15.50
2019-03-21T07:51:26.568Z,15.40
2019-03-21T07:52:26.568Z,15.60
2019-03-21T07:53:26.446Z,15.20
2019-03-21T07:54:26.445Z,15.00
2019-03-21T07:55:26.452Z,15.30
2019-03-21T07:56:26.325Z,15.80
2019-03-21T07:57:26.322Z,15.90
2019-03-21T07:58:26.201Z,15.20
2019-03-21T07:59:26.201Z,15.30
2019-03-21T08:00:26.201Z,15.40
2019-03-21T08:01:26.090Z,15.50
2019-03-21T08:02:26.084Z,15.00
2019-03-21T08:03:25.968Z,15.40
2019-03-21T08:04:25.967Z,15.20
2019-03-21T08:05:25.966Z,14.90
2019-03-21T08:06:25.843Z,15.00
2019-03-21T08:07:25.841Z,15.00
2019-03-21T08:08:25.720Z,15.30
2019-03-21T08:09:25.728Z,15.20
2019-03-21T08:10:25.722Z,15.30
2019-03-21T08:11:25.601Z,14.80
2019-03-21T08:12:25.598Z,14.60
2019-03-21T08:13:25.598Z,14.50
2019-03-21T08:14:25.486Z,13.70
2019-03-21T08:15:25.480Z,14.90
2019-03-21T08:16:25.360Z,13.90
2019-03-21T08:17:25.359Z,14.70
2019-03-21T08:18:25.364Z,14.40
2019-03-21T08:19:25.247Z,15.00
2019-03-21T08:20:25.277Z,14.70
2019-03-21T08:21:25.118Z,14.30
2019-03-21T08:22:25.116Z,13.70
2019-03-21T08:23:25.115Z,13.80
2019-03-21T08:24:25.001Z,13.80
2019-03-21T08:25:24.997Z,14.10
2019-03-21T08:26:24.875Z,13.20
2019-03-21T08:27:24.878Z,13.80
2019-03-21T08:28:24.882Z,13.70
2019-03-21T08:29:24.759Z,14.00
2019-03-21T08:30:24.754Z,14.50
2019-03-21T08:31:24.758Z,14.30
2019-03-21T08:32:24.639Z,13.40
2019-03-21T08:33:24.634Z,14.60
2019-03-21T08:34:24.520Z,14.10
2019-03-21T08:35:24.519Z,13.70
2019-03-21T08:36:24.513Z,13.20
2019-03-21T08:37:24.398Z,12.90
2019-03-21T08:38:24.393Z,12.80
2019-03-21T08:39:24.276Z,13.30
2019-03-21T08:40:24.272Z,14.40
2019-03-21T08:41:24.274Z,14.60
2019-03-21T08:42:24.151Z,14.30
2019-03-21T08:43:24.155Z,13.90
2019-03-21T08:44:24.153Z,14.20
2019-03-21T08:45:24.030Z,14.60
2019-03-21T08:46:24.031Z,16.00
2019-03-21T08:47:23.912Z,15.10
2019-03-21T08:48:23.913Z,15.10
2019-03-21T08:49:23.911Z,15.40
2019-03-21T08:50:23.791Z,14.50
2019-03-21T08:51:23.792Z,15.80
2019-03-21T08:52:23.675Z,15.80
2019-03-21T08:53:23.671Z,15.80
2019-03-21T08:54:23.675Z,15.20
2019-03-21T08:55:23.560Z,15.40
2019-03-21T08:56:23.556Z,15.10
2019-03-21T08:57:23.551Z,15.30
2019-03-21T08:58:23.430Z,14.30
2019-03-21T08:59:23.428Z,14.50
2019-03-21T09:00:33.793Z,13.60
2019-03-21T09:01:23.314Z,13.30
2019-03-21T09:02:23.309Z,11.90
2019-03-21T09:03:23.190Z,13.00
2019-03-21T09:04:23.186Z,12.70
2019-03-21T09:05:23.186Z,13.00
2019-03-21T09:06:23.069Z,13.20
2019-03-21T09:07:23.068Z,13.60
2019-03-21T09:08:22.949Z,12.80
2019-03-21T09:09:22.946Z,12.40
2019-03-21T09:10:22.946Z,13.20
2019-03-21T09:11:22.831Z,11.50
2019-03-21T09:12:22.831Z,12.60
2019-03-21T09:13:22.787Z,11.50
2019-03-21T09:14:22.707Z,11.60
2019-03-21T09:15:22.704Z,11.40
2019-03-21T09:16:22.590Z,12.10
2019-03-21T09:17:22.584Z,11.40
2019-03-21T09:18:22.586Z,12.20
2019-03-21T09:19:22.465Z,12.20
2019-03-21T09:20:22.465Z,11.80
2019-03-21T09:21:22.425Z,12.00
2019-03-21T09:22:22.344Z,11.90
2019-03-21T09:23:22.342Z,11.60
2019-03-21T09:24:22.221Z,11.60
2019-03-21T09:25:22.224Z,11.70
2019-03-21T09:26:22.225Z,12.00
2019-03-21T09:27:22.103Z,11.10
2019-03-21T09:28:22.105Z,11.30
2019-03-21T09:29:22.063Z,11.20
2019-03-21T09:30:21.980Z,11.40
2019-03-21T09:31:21.982Z,10.70
2019-03-21T09:32:21.905Z,10.70
2019-03-21T09:33:21.861Z,12.30
2019-03-21T09:34:21.860Z,11.40
2019-03-21T09:35:21.741Z,12.80
2019-03-21T09:36:21.743Z,12.40
2019-03-21T09:37:21.742Z,12.50
2019-03-21T09:38:21.620Z,11.70
2019-03-21T09:39:21.621Z,10.70
2019-03-21T09:40:21.500Z,10.90
2019-03-21T09:41:21.500Z,10.60
2019-03-21T09:42:21.504Z,10.50
2019-03-21T09:43:21.378Z,10.60
2019-03-21T09:44:21.378Z,10.60
2019-03-21T09:45:21.376Z,10.30
2019-03-21T09:46:21.259Z,9.80
2019-03-21T09:47:21.257Z,10.70
2019-03-21T09:48:21.142Z,12.40
2019-03-21T09:49:21.141Z,10.60
2019-03-21T09:50:21.143Z,10.30
2019-03-21T09:51:30.627Z,9.80
2019-03-21T09:52:21.017Z,10.30
2019-03-21T09:53:21.031Z,9.80
2019-03-21T09:54:20.897Z,9.60
2019-03-21T09:55:20.894Z,9.70
2019-03-21T09:56:20.774Z,9.50
2019-03-21T09:57:20.781Z,9.50
2019-03-21T09:58:20.776Z,9.20
2019-03-21T09:59:20.777Z,9.80
2019-03-21T10:00:20.736Z,9.50
2019-03-21T10:01:20.775Z,9.80
2019-03-21T10:02:20.653Z,9.10
2019-03-21T10:03:20.649Z,9.20
2019-03-21T10:04:20.533Z,9.30
2019-03-21T10:05:20.417Z,9.10
2019-03-21T10:06:20.414Z,9.30
2019-03-21T10:07:20.293Z,9.80
2019-03-21T10:08:20.292Z,9.10
2019-03-21T10:09:20.292Z,9.70
2019-03-21T10:10:20.175Z,9.10
2019-03-21T10:11:20.172Z,8.50
2019-03-21T10:12:20.175Z,8.40
2019-03-21T10:13:20.054Z,9.00
2019-03-21T10:14:20.050Z,8.60
2019-03-21T10:15:19.934Z,8.60
2019-03-21T10:16:19.933Z,9.00
2019-03-21T10:17:19.934Z,9.10
2019-03-21T10:18:19.813Z,8.70
2019-03-21T10:19:19.812Z,8.70
2019-03-21T10:20:19.808Z,8.70
2019-03-21T10:21:19.688Z,9.00
2019-03-21T10:22:19.687Z,8.90
2019-03-21T10:23:19.650Z,8.70
2019-03-21T10:24:19.583Z,8.00
2019-03-21T10:25:19.574Z,8.70
2019-03-21T10:26:19.449Z,9.10
2019-03-21T10:27:19.451Z,8.60
2019-03-21T10:28:19.447Z,8.70
2019-03-21T10:29:19.329Z,8.70
2019-03-21T10:30:19.333Z,8.90
2019-03-21T10:31:19.328Z,9.10
2019-03-21T10:32:19.211Z,8.80
2019-03-21T10:33:19.207Z,8.70
2019-03-21T10:34:19.090Z,9.00
2019-03-21T10:35:19.086Z,8.60
2019-03-21T10:36:19.087Z,9.10
2019-03-21T10:37:18.965Z,8.80
2019-03-21T10:38:18.966Z,8.20
2019-03-21T10:39:18.967Z,8.40
2019-03-21T10:40:18.846Z,8.80
2019-03-21T10:41:18.848Z,9.00
2019-03-21T10:42:18.844Z,9.10
2019-03-21T10:43:18.728Z,9.50
2019-03-21T10:44:18.727Z,9.80
2019-03-21T10:45:18.608Z,9.40
2019-03-21T10:46:18.608Z,9.30
2019-03-21T10:47:18.606Z,9.30
2019-03-21T10:48:18.483Z,9.80
2019-03-21T10:49:18.483Z,9.60
2019-03-21T10:50:18.488Z,9.40
2019-03-21T10:51:18.368Z,9.30
2019-03-21T10:52:18.362Z,9.20
2019-03-21T10:53:18.376Z,9.50
2019-03-21T10:54:18.248Z,9.30
2019-03-21T10:55:18.242Z,9.90
2019-03-21T10:56:18.124Z,10.10
2019-03-21T10:57:18.124Z,10.40
2019-03-21T10:58:18.120Z,9.90
2019-03-21T10:59:18.003Z,12.10
2019-03-21T11:00:18.000Z,11.70
2019-03-21T11:01:18.002Z,10.80
2019-03-21T11:02:17.884Z,10.30
2019-03-21T11:03:17.927Z,10.20
2019-03-21T11:04:17.885Z,9.80
2019-03-21T11:05:17.762Z,10.10
2019-03-21T11:06:17.760Z,10.70
2019-03-21T11:07:17.641Z,9.80
2019-03-21T11:08:17.645Z,11.00
2019-03-21T11:09:17.647Z,10.50
2019-03-21T11:10:17.522Z,10.20
2019-03-21T11:11:17.516Z,9.80
2019-03-21T11:12:17.516Z,9.60
2019-03-21T11:13:17.398Z,8.70
2019-03-21T11:14:17.398Z,8.60
2019-03-21T11:15:17.395Z,9.20
2019-03-21T11:16:17.277Z,8.60
2019-03-21T11:17:17.277Z,9.40
2019-03-21T11:18:17.158Z,10.00
2019-03-21T11:19:17.161Z,9.40
2019-03-21T11:20:17.158Z,9.30
2019-03-21T11:21:17.035Z,8.40
2019-03-21T11:22:17.041Z,8.80
2019-03-21T11:23:17.037Z,8.70
2019-03-21T11:24:16.918Z,9.10
2019-03-21T11:25:16.915Z,8.50
2019-03-21T11:26:16.915Z,8.60
2019-03-21T11:27:16.795Z,8.80
2019-03-21T11:28:17.866Z,8.40
2019-03-21T11:29:16.794Z,8.40
2019-03-21T11:30:16.676Z,9.90
2019-03-21T11:31:16.673Z,10.40
2019-03-21T11:32:16.553Z,10.50
2019-03-21T11:33:16.560Z,11.60
2019-03-21T11:34:16.554Z,11.20
2019-03-21T11:35:16.430Z,11.30
2019-03-21T11:36:16.432Z,10.90
2019-03-21T11:37:16.430Z,11.20
2019-03-21T11:38:16.310Z,11.10
2019-03-21T11:39:16.310Z,10.80
2019-03-21T11:40:16.312Z,11.60
2019-03-21T11:41:16.205Z,11.00
2019-03-21T11:42:16.196Z,10.70
2019-03-21T11:43:16.153Z,11.50
2019-03-21T11:44:16.076Z,12.10
2019-03-21T11:45:16.074Z,11.70
2019-03-21T11:46:15.967Z,9.50
2019-03-21T11:47:15.983Z,9.40
2019-03-21T11:48:15.948Z,9.00
2019-03-21T11:49:15.832Z,8.50
2019-03-21T11:50:15.839Z,9.00
2019-03-21T11:51:15.844Z,9.20
2019-03-21T11:52:18.396Z,8.40
2019-03-21T11:53:15.719Z,8.90
2019-03-21T11:54:15.709Z,8.10
2019-03-21T11:55:15.587Z,7.60
2019-03-21T11:56:15.598Z,8.10
2019-03-21T11:57:15.593Z,9.40
2019-03-21T11:58:17.521Z,9.40
2019-03-21T11:59:15.465Z,9.70
2019-03-21T12:00:15.427Z,10.10
2019-03-21T12:01:15.349Z,10.20
2019-03-21T12:02:26.283Z,10.50
2019-03-21T12:03:15.225Z,10.40
2019-03-21T12:04:15.224Z,11.10
2019-03-21T12:05:15.226Z,10.80
2019-03-21T12:06:15.104Z,11.30
2019-03-21T12:07:15.102Z,11.60
2019-03-21T12:08:15.103Z,11.20
2019-03-21T12:09:14.987Z,11.40
2019-03-21T12:10:14.988Z,11.20
2019-03-21T12:11:14.985Z,11.40
2019-03-21T12:12:14.863Z,11.10
2019-03-21T12:13:14.865Z,10.90
2019-03-21T12:14:14.860Z,10.90
2019-03-21T12:15:14.743Z,11.10
2019-03-21T12:16:14.746Z,11.30
2019-03-21T12:17:14.746Z,11.00
2019-03-21T12:18:14.620Z,10.80
2019-03-21T12:19:14.620Z,10.60
2019-03-21T12:20:14.624Z,9.80
2019-03-21T12:21:14.503Z,12.20
2019-03-21T12:22:14.500Z,11.40
2019-03-21T12:23:14.505Z,10.70
2019-03-21T12:24:14.380Z,11.40
2019-03-21T12:25:14.380Z,11.60
2019-03-21T12:26:14.378Z,11.10
2019-03-21T12:27:14.261Z,11.20
2019-03-21T12:28:14.258Z,11.70
2019-03-21T12:29:14.261Z,11.60
2019-03-21T12:30:14.140Z,12.50
2019-03-21T12:31:14.142Z,12.00
2019-03-21T12:32:14.137Z,11.40
2019-03-21T12:33:14.017Z,10.30
2019-03-21T12:34:14.015Z,10.40
2019-03-21T12:35:14.023Z,10.20
2019-03-21T12:36:13.899Z,10.10
2019-03-21T12:37:13.897Z,11.40
2019-03-21T12:38:13.898Z,11.40
2019-03-21T12:39:13.780Z,11.70
2019-03-21T12:40:13.785Z,12.50
2019-03-21T12:41:13.776Z,12.50
2019-03-21T12:42:13.655Z,12.50
2019-03-21T12:43:13.657Z,13.00
2019-03-21T12:44:13.656Z,12.70
2019-03-21T12:45:13.538Z,12.70
2019-03-21T12:46:13.535Z,12.00
2019-03-21T12:47:13.538Z,12.40
2019-03-21T12:48:13.534Z,12.10
2019-03-21T12:49:13.413Z,12.40
2019-03-21T12:50:13.413Z,10.80
2019-03-21T12:51:13.620Z,10.70
2019-03-21T12:52:13.297Z,10.50
2019-03-21T12:53:13.297Z,10.70
2019-03-21T12:54:13.301Z,10.40
2019-03-21T12:55:13.175Z,10.10
2019-03-21T12:56:13.179Z,9.30